Pagrindinis puslapis
METAR-TAF:

METAR-TAF

Oro uostai :

Porto Alegrė, Pietų Rio Grandė, Brazilija

platuma: 30-01S, ilguma: 051-13W, Aukštis: 47 m

Dabartinis oras

Ataskaita buvo paskelbta 3 valandos ir 34 minutes, ne 02:00 UTC
Vėjas 5 kt iš Vakarų/Šiaurės Vakarų
Temperatūra 16°C
Drėgmė 82%
Slėgis 1018 hPa
Matomumas 10 km arba daugiau
Išsisklaidę debesys ne aukštis 2300 ft

METAR: SBCO 100200Z 30005KT 9999 SCT023 16/13 Q1018

Laikas: 02:34 (05:34 UTC)

Prognozė

Ataskaita buvo paskelbta 7 valandos ir 34 minutes, ne 22:00 UTC
Prognozė galioja nuo 10 metu 00 UTC su 10 metu 12 UTC
Vėjas 8 kt iš Pietų/Pietryčių
Matomumas 10 km arba daugiau
nėra debesų žemiau 1500 m ir nėra kamuolinių lietaus debesų
Tapsmas
nuo 10 metu 05 UTC su 10 metu 06 UTC
Vėjas 7 kt iš Pietvakarių
Išsisklaidę debesys ne aukštis 2000 ft

TAF: SBCO 092200Z 1000/1012 16008KT CAVOK TX21/1000Z TN13/1008Z BECMG 1005/1006 22007KT SCT020 RMK PEM

Orai ataskaitas ir orų prognozės (METAR, TAF).

turimą stotys yra geltonos ir raudonos taškus žemėlapyje.

Perkelti pele per norėdami pamatyti stoties vardą.

Tada spustelėkite, norėdami matyti oro stebėjimo ir prognozės.

Norėdami pakeisti žemėlapį: spustelėkite ant žalios mygtukų su juodo kryžiaus žemyn,; žalią mygtuką su brūkšneliu, jei norite nutolinti; arba žalių rodyklių gretimoms žemėlapius.


METAR-TAF: